Ahlsell — OYZH — position and weather

sailwx.info

Track history (hours):
 
Tides and Currents Weather Stations Pressure Air Temp Water Temp Dewpoint Dewpoint Depression Visibility Wind Speed Wind Dir Waves Ship Positions

Ahlsell

Last reported at 2015-May-24 08:33 UTC. Time now 2015-May-24 09:20 UTC.
Position N 55°06' E 014°41'.

Length 40 m; draft 4 m.

Type: Dredging. MMSI: 219000852.

Date/timePositionNaut miles runAvg speedWind from/ knotsBaromVisibWave heightAir tempDewpointWater temp
2015-May-24 08:33N 55°06' E 014°41'0 0.0
2015-May-24 07:33N 55°06' E 014°41'0 0.0
2015-May-24 06:34N 55°06' E 014°41'0 0.0
2015-May-24 05:34N 55°06' E 014°41'0 0.0
2015-May-24 04:34N 55°06' E 014°41'0 0.0
2015-May-24 03:33N 55°06' E 014°41'0 0.0
2015-May-24 02:34N 55°06' E 014°41'0 0.0
2015-May-24 01:33N 55°06' E 014°41'0 0.0
2015-May-24 00:33N 55°06' E 014°41'0 0.0
2015-May-23 23:33N 55°06' E 014°41'0 0.0
2015-May-23 22:33N 55°06' E 014°41'0 0.0
2015-May-23 21:34N 55°06' E 014°41'0 0.0
2015-May-23 20:34N 55°06' E 014°41'0 0.0
2015-May-23 19:33N 55°06' E 014°41'0 0.0
2015-May-23 18:33N 55°06' E 014°41'0 0.0
2015-May-23 17:34N 55°06' E 014°41'0 0.0
2015-May-23 16:34N 55°06' E 014°41'0 0.0
2015-May-23 15:34N 55°06' E 014°41'0 0.0
2015-May-23 14:33N 55°06' E 014°41'0 0.0
2015-May-23 13:33N 55°06' E 014°41'0 0.0
2015-May-23 12:34N 55°06' E 014°41'0 0.0
2015-May-23 11:34N 55°06' E 014°41'0 0.0
2015-May-23 10:34N 55°06' E 014°41'0 0.0
2015-May-23 09:34N 55°06' E 014°41'0 0.0
2015-May-23 08:34N 55°06' E 014°41'0 0.0
2015-May-23 07:34N 55°06' E 014°41'0 0.0
2015-May-23 06:34N 55°06' E 014°41'0 0.0
2015-May-23 05:33N 55°06' E 014°41'0 0.0
2015-May-23 04:34N 55°06' E 014°41'0 0.0
2015-May-23 03:33N 55°06' E 014°41'0 0.1
2015-May-23 02:34N 55°06' E 014°41'0 0.0
2015-May-23 01:34N 55°06' E 014°41'2 1.7
2015-May-23 00:34N 55°04' E 014°40'2 2.0
2015-May-22 23:33N 55°02' E 014°41'0 0.0
2015-May-22 22:33N 55°02' E 014°41'0 0.0
2015-May-22 21:33N 55°02' E 014°41'0 0.0
2015-May-22 20:34N 55°02' E 014°41'0 0.0
2015-May-22 19:34N 55°02' E 014°41'1 1.3
2015-May-22 18:34N 55°04' E 014°41'2 2.3
2015-May-22 17:34N 55°06' E 014°41'0 0.0
2015-May-22 16:34N 55°06' E 014°41'4 3.9
2015-May-22 15:33N 55°02' E 014°41'0 0.0
2015-May-22 14:33N 55°02' E 014°41'0 0.0
2015-May-22 13:33N 55°02' E 014°41'0 0.0
2015-May-22 12:33N 55°02' E 014°41'3 3.2
2015-May-22 11:33N 55°05' E 014°41'1 0.8
2015-May-22 10:33N 55°06' E 014°41'0 0.0
2015-May-22 09:33N 55°06' E 014°41'4 4.0
2015-May-22 08:33N 55°02' E 014°41'0 0.0
2015-May-22 07:33N 55°02' E 014°41'0 0.0
2015-May-22 06:33N 55°02' E 014°41'0 0.0
2015-May-22 05:34N 55°02' E 014°41'1 0.6
2015-May-22 04:33N 55°03' E 014°41'3 3.3
2015-May-22 03:34N 55°06' E 014°41'0 0.0
2015-May-22 02:34N 55°06' E 014°41'3 3.4
2015-May-22 01:34N 55°03' E 014°41'1 0.6
2015-May-22 00:34N 55°02' E 014°41'0 0.0
2015-May-21 23:34N 55°02' E 014°41'0 0.0
2015-May-21 22:34N 55°02' E 014°41'0 0.0
2015-May-21 21:33N 55°02' E 014°41'2 2.2
2015-May-21 20:34N 55°04' E 014°40'2 1.8
2015-May-21 19:33N 55°06' E 014°41'0 0.0
2015-May-21 18:34N 55°06' E 014°41'4 4.0
2015-May-21 17:34N 55°02' E 014°41'0 0.0
2015-May-21 16:34N 55°02' E 014°41'0 0.0
2015-May-21 15:34N 55°02' E 014°41'0 0.0
2015-May-21 14:33N 55°02' E 014°41'2 1.7
2015-May-21 13:33N 55°04' E 014°41'2 2.3
2015-May-21 12:33N 55°06' E 014°41'0 0.0
2015-May-21 11:33N 55°06' E 014°41'3 2.9
2015-May-21 10:33N 55°03' E 014°40'1 1.2
2015-May-21 09:33N 55°02' E 014°41'0 0.0
2015-May-21 08:34N 55°02' E 014°41'0 0.1
2015-May-21 07:34N 55°02' E 014°41'4 4.0
2015-May-21 06:34N 55°06' E 014°41'0 0.0
2015-May-21 05:34N 55°06' E 014°41'2 1.9
2015-May-21 04:34N 55°04' E 014°40'2 2.5
2015-May-21 03:34N 55°02' E 014°39'0 0.0
2015-May-21 02:34N 55°02' E 014°39'0 0.1
2015-May-21 01:34N 55°02' E 014°40'0 0.2
2015-May-21 00:34N 55°01' E 014°39'0 0.1
2015-May-20 23:34N 55°01' E 014°39'0 0.0
2015-May-20 22:34N 55°01' E 014°39'0 0.1
2015-May-20 21:34N 55°02' E 014°39'5 4.5
2015-May-20 20:33N 55°06' E 014°41'0 0.0
2015-May-20 19:33N 55°06' E 014°41'0 0.0
2015-May-20 18:34N 55°06' E 014°41'4 4.0
2015-May-20 17:34N 55°02' E 014°41'0 0.0
2015-May-20 16:34N 55°02' E 014°41'0 0.1
2015-May-20 15:33N 55°02' E 014°41'0 0.0
2015-May-20 14:33N 55°02' E 014°41'2 1.6
2015-May-20 13:33N 55°03' E 014°41'3 2.5
2015-May-20 12:34N 55°06' E 014°41'0 0.0
2015-May-20 11:34N 55°06' E 014°41'2 2.0
2015-May-20 10:33N 55°04' E 014°41'0 0.1
2015-May-20 09:34N 55°04' E 014°41'0 0.0
2015-May-20 08:34N 55°04' E 014°41'0 0.0
2015-May-20 07:33N 55°04' E 014°41'0 0.0
2015-May-20 06:33N 55°04' E 014°41'0 0.0
2015-May-20 05:34N 55°04' E 014°41'2 1.9
2015-May-20 04:34N 55°06' E 014°41'0 0.0
2015-May-20 03:33N 55°06' E 014°41'2 2.0
2015-May-20 02:34N 55°04' E 014°41'0 0.0
2015-May-20 01:34N 55°04' E 014°41'0 0.0
2015-May-20 00:34N 55°04' E 014°41'0 0.0
2015-May-19 23:33N 55°04' E 014°41'2 1.9
2015-May-19 22:34N 55°06' E 014°41'0 0.0
2015-May-19 21:33N 55°06' E 014°41'2 1.7
2015-May-19 20:33N 55°04' E 014°41'1 0.5
2015-May-19 19:34N 55°04' E 014°41'0 0.0
2015-May-19 18:33N 55°04' E 014°41'0 0.5
2015-May-19 17:34N 55°04' E 014°41'2 1.7
2015-May-19 16:34N 55°06' E 014°41'0 0.0
2015-May-19 15:34N 55°06' E 014°41'2 2.0
2015-May-19 14:34N 55°04' E 014°41'0 0.0
2015-May-19 13:33N 55°04' E 014°41'2 1.9
2015-May-19 12:34N 55°06' E 014°41'0 0.0
2015-May-19 11:33N 55°06' E 014°41'0 0.1
2015-May-19 10:33N 55°06' E 014°41'0 0.0
2015-May-19 09:34N 55°06' E 014°41'0 0.0
2015-May-19 08:34N 55°06' E 014°41'2 2.0
2015-May-19 07:34N 55°04' E 014°41'0 0.0
2015-May-19 06:34N 55°04' E 014°41'0 0.0
2015-May-19 05:34N 55°04' E 014°41'0 0.0
2015-May-19 04:33N 55°04' E 014°41'0 0.0
2015-May-19 03:34N 55°04' E 014°41'1 0.7
2015-May-19 02:34N 55°05' E 014°41'1 1.5
2015-May-19 01:34N 55°06' E 014°41'1 1.0
2015-May-19 00:33N 55°05' E 014°41'1 1.0
2015-May-18 23:34N 55°04' E 014°41'0 0.0
2015-May-18 22:33N 55°04' E 014°41'0 0.0
2015-May-18 21:34N 55°04' E 014°41'0 0.0
2015-May-18 20:34N 55°04' E 014°41'0 0.0
2015-May-18 19:33N 55°04' E 014°41'2 1.9
2015-May-18 18:34N 55°06' E 014°41'0 0.0
2015-May-18 17:33N 55°06' E 014°41'2 2.0
2015-May-18 16:33N 55°04' E 014°41'0 0.0
2015-May-18 15:34N 55°04' E 014°41'0 0.0
2015-May-18 14:33N 55°04' E 014°41'0 0.0
2015-May-18 13:34N 55°04' E 014°41'0 0.0
2015-May-18 12:34N 55°04' E 014°41'2 2.0
2015-May-18 11:34N 55°06' E 014°41'0 0.0
2015-May-18 10:33N 55°06' E 014°41'0 0.0
2015-May-18 09:34N 55°06' E 014°41'0 0.0
2015-May-18 08:34N 55°06' E 014°41'0 0.0
2015-May-18 07:33N 55°06' E 014°41'0 0.0
2015-May-18 06:34N 55°06' E 014°41'0 0.0
2015-May-18 05:34N 55°06' E 014°41'0 0.0
2015-May-18 04:34N 55°06' E 014°41'0 0.0
2015-May-18 03:33N 55°06' E 014°41'0 0.0
2015-May-18 02:34N 55°06' E 014°41'0 0.0
2015-May-18 01:34N 55°06' E 014°41'0 0.0
2015-May-18 00:33N 55°06' E 014°41'0 0.0
2015-May-17 23:34N 55°06' E 014°41'0 0.0
2015-May-17 22:34N 55°06' E 014°41'0 0.0
2015-May-17 21:33N 55°06' E 014°41'0 0.0
2015-May-17 20:33N 55°06' E 014°41'0 0.0
2015-May-17 19:34N 55°06' E 014°41'0 0.0
2015-May-17 18:34N 55°06' E 014°41'0 0.0
2015-May-17 17:34N 55°06' E 014°41'0 0.0
2015-May-17 16:33N 55°06' E 014°41'0 0.0
2015-May-17 15:33N 55°06' E 014°41'0 0.0
2015-May-17 14:34N 55°06' E 014°41'0 0.0
2015-May-17 13:33N 55°06' E 014°41'0 0.0
2015-May-17 12:34N 55°06' E 014°41'0 0.0
2015-May-17 11:34N 55°06' E 014°41'0 0.0
2015-May-17 10:33N 55°06' E 014°41'0 0.0
2015-May-17 09:33N 55°06' E 014°41'0 0.0
2015-May-17 08:34N 55°06' E 014°41'0 0.0
2015-May-17 07:34N 55°06' E 014°41'0 0.0
2015-May-17 06:34N 55°06' E 014°41'0 0.0
2015-May-17 05:34N 55°06' E 014°41'0 0.0
2015-May-17 04:34N 55°06' E 014°41'0 0.0
2015-May-17 03:34N 55°06' E 014°41'0 0.0
2015-May-17 02:34N 55°06' E 014°41'0 0.0
2015-May-17 01:34N 55°06' E 014°41'0 0.0
2015-May-17 00:34N 55°06' E 014°41'0 0.0
2015-May-16 23:33N 55°06' E 014°41'0 0.0
2015-May-16 22:34N 55°06' E 014°41'0 0.0
2015-May-16 21:33N 55°06' E 014°41'0 0.0
2015-May-16 20:33N 55°06' E 014°41'0 0.0
2015-May-16 19:34N 55°06' E 014°41'0 0.0
2015-May-16 18:33N 55°06' E 014°41'0 0.0
2015-May-16 17:33N 55°06' E 014°41'0 0.0
2015-May-16 16:34N 55°06' E 014°41'0 0.0
2015-May-16 15:33N 55°06' E 014°41'0 0.0
2015-May-16 14:33N 55°06' E 014°41'0 0.0
2015-May-16 13:34N 55°06' E 014°41'0 0.0
2015-May-16 12:34N 55°06' E 014°41'0 0.0
2015-May-16 11:34N 55°06' E 014°41'0 0.0
2015-May-16 10:33N 55°06' E 014°41'0 0.0
2015-May-16 09:33N 55°06' E 014°41'0 0.0
2015-May-16 08:34N 55°06' E 014°41'0 0.0
2015-May-16 07:33N 55°06' E 014°41'0 0.0
2015-May-16 06:33N 55°06' E 014°41'0 0.0
2015-May-16 05:33N 55°06' E 014°41'0 0.0
2015-May-16 04:34N 55°06' E 014°41'0 0.0
2015-May-16 03:33N 55°06' E 014°41'0 0.0
2015-May-16 02:33N 55°06' E 014°41'0 0.0
2015-May-16 01:33N 55°06' E 014°41'0 0.0
2015-May-16 00:34N 55°06' E 014°41'0 0.0
2015-May-15 23:34N 55°06' E 014°41'0 0.0
2015-May-15 22:34N 55°06' E 014°41'0 0.0
2015-May-15 21:34N 55°06' E 014°41'0 0.0
2015-May-15 20:34N 55°06' E 014°41'0 0.0
2015-May-15 19:33N 55°06' E 014°41'3 3.2
2015-May-15 18:34N 55°03' E 014°41'6 6.1
2015-May-15 17:33N 54°58' E 014°48'2 2.2
2015-May-15 16:34N 54°56' E 014°50'2 2.3
2015-May-15 15:34N 54°58' E 014°48'8 8.3
2015-May-15 14:34N 55°05' E 014°41'1 0.7
2015-May-15 13:33N 55°06' E 014°41'0 0.0
2015-May-15 12:33N 55°06' E 014°41'0 0.0
2015-May-15 11:34N 55°06' E 014°41'0 0.0
2015-May-15 10:33N 55°06' E 014°41'0 0.0
2015-May-15 09:33N 55°06' E 014°41'0 0.0
2015-May-15 08:34N 55°06' E 014°41'0 0.0
2015-May-15 07:34N 55°06' E 014°41'0 0.0
2015-May-15 06:33N 55°06' E 014°41'0 0.0
2015-May-15 05:34N 55°06' E 014°41'0 0.0
2015-May-15 04:34N 55°06' E 014°41'0 0.0
2015-May-15 03:34N 55°06' E 014°41'0 0.1
2015-May-15 02:34N 55°06' E 014°41'0 0.0
2015-May-15 01:33N 55°06' E 014°41'0 0.0
2015-May-15 00:34N 55°06' E 014°41'0 0.0
2015-May-14 23:34N 55°06' E 014°41'3 2.8
2015-May-14 22:33N 55°03' E 014°41'6 5.8
2015-May-14 21:34N 54°59' E 014°47'3 2.9
2015-May-14 20:34N 54°56' E 014°50'3 2.8
2015-May-14 19:34N 54°59' E 014°48'8 8.0
2015-May-14 18:33N 55°06' E 014°41'0 0.1
2015-May-14 17:34N 55°06' E 014°41'0 0.0
2015-May-14 16:33N 55°06' E 014°41'0 0.0
2015-May-14 15:33N 55°06' E 014°41'3 2.5
2015-May-14 14:34N 55°03' E 014°41'6 5.8
2015-May-14 13:33N 54°59' E 014°47'3 2.8
2015-May-14 12:34N 54°57' E 014°51'3 3.1
2015-May-14 11:34N 54°60' E 014°47'7 7.2
2015-May-14 10:33N 55°06' E 014°41'0 0.0
2015-May-14 09:33N 55°06' E 014°41'0 0.1
2015-May-14 08:33N 55°06' E 014°41'  
Track history (hours):
 
Tides and Currents Weather Stations Pressure Air Temp Water Temp Dewpoint Dewpoint Depression Visibility Wind Speed Wind Dir Waves Ship Positions

Ahlsell

Last reported at 2015-May-24 08:33 UTC. Time now 2015-May-24 09:20 UTC.
Position N 55°06' E 014°41'.

Length 40 m; draft 4 m.

Type: Dredging. MMSI: 219000852.

Date/timePositionNaut miles runAvg speedWind from/ knotsBaromVisibWave heightAir tempDewpointWater temp
2015-May-24 08:33N 55°06' E 014°41'0 0.0
2015-May-24 07:33N 55°06' E 014°41'0 0.0
2015-May-24 06:34N 55°06' E 014°41'0 0.0
2015-May-24 05:34N 55°06' E 014°41'0 0.0
2015-May-24 04:34N 55°06' E 014°41'0 0.0
2015-May-24 03:33N 55°06' E 014°41'0 0.0
2015-May-24 02:34N 55°06' E 014°41'0 0.0
2015-May-24 01:33N 55°06' E 014°41'0 0.0
2015-May-24 00:33N 55°06' E 014°41'0 0.0
2015-May-23 23:33N 55°06' E 014°41'0 0.0
2015-May-23 22:33N 55°06' E 014°41'0 0.0
2015-May-23 21:34N 55°06' E 014°41'0 0.0
2015-May-23 20:34N 55°06' E 014°41'0 0.0
2015-May-23 19:33N 55°06' E 014°41'0 0.0
2015-May-23 18:33N 55°06' E 014°41'0 0.0
2015-May-23 17:34N 55°06' E 014°41'0 0.0
2015-May-23 16:34N 55°06' E 014°41'0 0.0
2015-May-23 15:34N 55°06' E 014°41'0 0.0
2015-May-23 14:33N 55°06' E 014°41'0 0.0
2015-May-23 13:33N 55°06' E 014°41'0 0.0
2015-May-23 12:34N 55°06' E 014°41'0 0.0
2015-May-23 11:34N 55°06' E 014°41'0 0.0
2015-May-23 10:34N 55°06' E 014°41'0 0.0
2015-May-23 09:34N 55°06' E 014°41'0 0.0
2015-May-23 08:34N 55°06' E 014°41'0 0.0
2015-May-23 07:34N 55°06' E 014°41'0 0.0
2015-May-23 06:34N 55°06' E 014°41'0 0.0
2015-May-23 05:33N 55°06' E 014°41'0 0.0
2015-May-23 04:34N 55°06' E 014°41'0 0.0
2015-May-23 03:33N 55°06' E 014°41'0 0.1
2015-May-23 02:34N 55°06' E 014°41'0 0.0
2015-May-23 01:34N 55°06' E 014°41'2 1.7
2015-May-23 00:34N 55°04' E 014°40'2 2.0
2015-May-22 23:33N 55°02' E 014°41'0 0.0
2015-May-22 22:33N 55°02' E 014°41'0 0.0
2015-May-22 21:33N 55°02' E 014°41'0 0.0
2015-May-22 20:34N 55°02' E 014°41'0 0.0
2015-May-22 19:34N 55°02' E 014°41'1 1.3
2015-May-22 18:34N 55°04' E 014°41'2 2.3
2015-May-22 17:34N 55°06' E 014°41'0 0.0
2015-May-22 16:34N 55°06' E 014°41'4 3.9
2015-May-22 15:33N 55°02' E 014°41'0 0.0
2015-May-22 14:33N 55°02' E 014°41'0 0.0
2015-May-22 13:33N 55°02' E 014°41'0 0.0
2015-May-22 12:33N 55°02' E 014°41'3 3.2
2015-May-22 11:33N 55°05' E 014°41'1 0.8
2015-May-22 10:33N 55°06' E 014°41'0 0.0
2015-May-22 09:33N 55°06' E 014°41'4 4.0
2015-May-22 08:33N 55°02' E 014°41'0 0.0
2015-May-22 07:33N 55°02' E 014°41'0 0.0
2015-May-22 06:33N 55°02' E 014°41'0 0.0
2015-May-22 05:34N 55°02' E 014°41'1 0.6
2015-May-22 04:33N 55°03' E 014°41'3 3.3
2015-May-22 03:34N 55°06' E 014°41'0 0.0
2015-May-22 02:34N 55°06' E 014°41'3 3.4
2015-May-22 01:34N 55°03' E 014°41'1 0.6
2015-May-22 00:34N 55°02' E 014°41'0 0.0
2015-May-21 23:34N 55°02' E 014°41'0 0.0
2015-May-21 22:34N 55°02' E 014°41'0 0.0
2015-May-21 21:33N 55°02' E 014°41'2 2.2
2015-May-21 20:34N 55°04' E 014°40'2 1.8
2015-May-21 19:33N 55°06' E 014°41'0 0.0
2015-May-21 18:34N 55°06' E 014°41'4 4.0
2015-May-21 17:34N 55°02' E 014°41'0 0.0
2015-May-21 16:34N 55°02' E 014°41'0 0.0
2015-May-21 15:34N 55°02' E 014°41'0 0.0
2015-May-21 14:33N 55°02' E 014°41'2 1.7
2015-May-21 13:33N 55°04' E 014°41'2 2.3
2015-May-21 12:33N 55°06' E 014°41'0 0.0
2015-May-21 11:33N 55°06' E 014°41'3 2.9
2015-May-21 10:33N 55°03' E 014°40'1 1.2
2015-May-21 09:33N 55°02' E 014°41'0 0.0
2015-May-21 08:34N 55°02' E 014°41'0 0.1
2015-May-21 07:34N 55°02' E 014°41'4 4.0
2015-May-21 06:34N 55°06' E 014°41'0 0.0
2015-May-21 05:34N 55°06' E 014°41'2 1.9
2015-May-21 04:34N 55°04' E 014°40'2 2.5
2015-May-21 03:34N 55°02' E 014°39'0 0.0
2015-May-21 02:34N 55°02' E 014°39'0 0.1
2015-May-21 01:34N 55°02' E 014°40'0 0.2
2015-May-21 00:34N 55°01' E 014°39'0 0.1
2015-May-20 23:34N 55°01' E 014°39'0 0.0
2015-May-20 22:34N 55°01' E 014°39'0 0.1
2015-May-20 21:34N 55°02' E 014°39'5 4.5
2015-May-20 20:33N 55°06' E 014°41'0 0.0
2015-May-20 19:33N 55°06' E 014°41'0 0.0
2015-May-20 18:34N 55°06' E 014°41'4 4.0
2015-May-20 17:34N 55°02' E 014°41'0 0.0
2015-May-20 16:34N 55°02' E 014°41'0 0.1
2015-May-20 15:33N 55°02' E 014°41'0 0.0
2015-May-20 14:33N 55°02' E 014°41'2 1.6
2015-May-20 13:33N 55°03' E 014°41'3 2.5
2015-May-20 12:34N 55°06' E 014°41'0 0.0
2015-May-20 11:34N 55°06' E 014°41'2 2.0
2015-May-20 10:33N 55°04' E 014°41'0 0.1
2015-May-20 09:34N 55°04' E 014°41'0 0.0
2015-May-20 08:34N 55°04' E 014°41'0 0.0
2015-May-20 07:33N 55°04' E 014°41'0 0.0
2015-May-20 06:33N 55°04' E 014°41'0 0.0
2015-May-20 05:34N 55°04' E 014°41'2 1.9
2015-May-20 04:34N 55°06' E 014°41'0 0.0
2015-May-20 03:33N 55°06' E 014°41'2 2.0
2015-May-20 02:34N 55°04' E 014°41'0 0.0
2015-May-20 01:34N 55°04' E 014°41'0 0.0
2015-May-20 00:34N 55°04' E 014°41'0 0.0
2015-May-19 23:33N 55°04' E 014°41'2 1.9
2015-May-19 22:34N 55°06' E 014°41'0 0.0
2015-May-19 21:33N 55°06' E 014°41'2 1.7
2015-May-19 20:33N 55°04' E 014°41'1 0.5
2015-May-19 19:34N 55°04' E 014°41'0 0.0
2015-May-19 18:33N 55°04' E 014°41'0 0.5
2015-May-19 17:34N 55°04' E 014°41'2 1.7
2015-May-19 16:34N 55°06' E 014°41'0 0.0
2015-May-19 15:34N 55°06' E 014°41'2 2.0
2015-May-19 14:34N 55°04' E 014°41'0 0.0
2015-May-19 13:33N 55°04' E 014°41'2 1.9
2015-May-19 12:34N 55°06' E 014°41'0 0.0
2015-May-19 11:33N 55°06' E 014°41'0 0.1
2015-May-19 10:33N 55°06' E 014°41'0 0.0
2015-May-19 09:34N 55°06' E 014°41'0 0.0
2015-May-19 08:34N 55°06' E 014°41'2 2.0
2015-May-19 07:34N 55°04' E 014°41'0 0.0
2015-May-19 06:34N 55°04' E 014°41'0 0.0
2015-May-19 05:34N 55°04' E 014°41'0 0.0
2015-May-19 04:33N 55°04' E 014°41'0 0.0
2015-May-19 03:34N 55°04' E 014°41'1 0.7
2015-May-19 02:34N 55°05' E 014°41'1 1.5
2015-May-19 01:34N 55°06' E 014°41'1 1.0
2015-May-19 00:33N 55°05' E 014°41'1 1.0
2015-May-18 23:34N 55°04' E 014°41'0 0.0
2015-May-18 22:33N 55°04' E 014°41'0 0.0
2015-May-18 21:34N 55°04' E 014°41'0 0.0
2015-May-18 20:34N 55°04' E 014°41'0 0.0
2015-May-18 19:33N 55°04' E 014°41'2 1.9
2015-May-18 18:34N 55°06' E 014°41'0 0.0
2015-May-18 17:33N 55°06' E 014°41'2 2.0
2015-May-18 16:33N 55°04' E 014°41'0 0.0
2015-May-18 15:34N 55°04' E 014°41'0 0.0
2015-May-18 14:33N 55°04' E 014°41'0 0.0
2015-May-18 13:34N 55°04' E 014°41'0 0.0
2015-May-18 12:34N 55°04' E 014°41'2 2.0
2015-May-18 11:34N 55°06' E 014°41'0 0.0
2015-May-18 10:33N 55°06' E 014°41'0 0.0
2015-May-18 09:34N 55°06' E 014°41'0 0.0
2015-May-18 08:34N 55°06' E 014°41'0 0.0
2015-May-18 07:33N 55°06' E 014°41'0 0.0
2015-May-18 06:34N 55°06' E 014°41'0 0.0
2015-May-18 05:34N 55°06' E 014°41'0 0.0
2015-May-18 04:34N 55°06' E 014°41'0 0.0
2015-May-18 03:33N 55°06' E 014°41'0 0.0
2015-May-18 02:34N 55°06' E 014°41'0 0.0
2015-May-18 01:34N 55°06' E 014°41'0 0.0
2015-May-18 00:33N 55°06' E 014°41'0 0.0
2015-May-17 23:34N 55°06' E 014°41'0 0.0
2015-May-17 22:34N 55°06' E 014°41'0 0.0
2015-May-17 21:33N 55°06' E 014°41'0 0.0
2015-May-17 20:33N 55°06' E 014°41'0 0.0
2015-May-17 19:34N 55°06' E 014°41'0 0.0
2015-May-17 18:34N 55°06' E 014°41'0 0.0
2015-May-17 17:34N 55°06' E 014°41'0 0.0
2015-May-17 16:33N 55°06' E 014°41'0 0.0
2015-May-17 15:33N 55°06' E 014°41'0 0.0
2015-May-17 14:34N 55°06' E 014°41'0 0.0
2015-May-17 13:33N 55°06' E 014°41'0 0.0
2015-May-17 12:34N 55°06' E 014°41'0 0.0
2015-May-17 11:34N 55°06' E 014°41'0 0.0
2015-May-17 10:33N 55°06' E 014°41'0 0.0
2015-May-17 09:33N 55°06' E 014°41'0 0.0
2015-May-17 08:34N 55°06' E 014°41'0 0.0
2015-May-17 07:34N 55°06' E 014°41'0 0.0
2015-May-17 06:34N 55°06' E 014°41'0 0.0
2015-May-17 05:34N 55°06' E 014°41'0 0.0
2015-May-17 04:34N 55°06' E 014°41'0 0.0
2015-May-17 03:34N 55°06' E 014°41'0 0.0
2015-May-17 02:34N 55°06' E 014°41'0 0.0
2015-May-17 01:34N 55°06' E 014°41'0 0.0
2015-May-17 00:34N 55°06' E 014°41'0 0.0
2015-May-16 23:33N 55°06' E 014°41'0 0.0
2015-May-16 22:34N 55°06' E 014°41'0 0.0
2015-May-16 21:33N 55°06' E 014°41'0 0.0
2015-May-16 20:33N 55°06' E 014°41'0 0.0
2015-May-16 19:34N 55°06' E 014°41'0 0.0
2015-May-16 18:33N 55°06' E 014°41'0 0.0
2015-May-16 17:33N 55°06' E 014°41'0 0.0
2015-May-16 16:34N 55°06' E 014°41'0 0.0
2015-May-16 15:33N 55°06' E 014°41'0 0.0
2015-May-16 14:33N 55°06' E 014°41'0 0.0
2015-May-16 13:34N 55°06' E 014°41'0 0.0
2015-May-16 12:34N 55°06' E 014°41'0 0.0
2015-May-16 11:34N 55°06' E 014°41'0 0.0
2015-May-16 10:33N 55°06' E 014°41'0 0.0
2015-May-16 09:33N 55°06' E 014°41'0 0.0
2015-May-16 08:34N 55°06' E 014°41'0 0.0
2015-May-16 07:33N 55°06' E 014°41'0 0.0
2015-May-16 06:33N 55°06' E 014°41'0 0.0
2015-May-16 05:33N 55°06' E 014°41'0 0.0
2015-May-16 04:34N 55°06' E 014°41'0 0.0
2015-May-16 03:33N 55°06' E 014°41'0 0.0
2015-May-16 02:33N 55°06' E 014°41'0 0.0
2015-May-16 01:33N 55°06' E 014°41'0 0.0
2015-May-16 00:34N 55°06' E 014°41'0 0.0
2015-May-15 23:34N 55°06' E 014°41'0 0.0
2015-May-15 22:34N 55°06' E 014°41'0 0.0
2015-May-15 21:34N 55°06' E 014°41'0 0.0
2015-May-15 20:34N 55°06' E 014°41'0 0.0
2015-May-15 19:33N 55°06' E 014°41'3 3.2
2015-May-15 18:34N 55°03' E 014°41'6 6.1
2015-May-15 17:33N 54°58' E 014°48'2 2.2
2015-May-15 16:34N 54°56' E 014°50'2 2.3
2015-May-15 15:34N 54°58' E 014°48'8 8.3
2015-May-15 14:34N 55°05' E 014°41'1 0.7
2015-May-15 13:33N 55°06' E 014°41'0 0.0
2015-May-15 12:33N 55°06' E 014°41'0 0.0
2015-May-15 11:34N 55°06' E 014°41'0 0.0
2015-May-15 10:33N 55°06' E 014°41'0 0.0
2015-May-15 09:33N 55°06' E 014°41'0 0.0
2015-May-15 08:34N 55°06' E 014°41'0 0.0
2015-May-15 07:34N 55°06' E 014°41'0 0.0
2015-May-15 06:33N 55°06' E 014°41'0 0.0
2015-May-15 05:34N 55°06' E 014°41'0 0.0
2015-May-15 04:34N 55°06' E 014°41'0 0.0
2015-May-15 03:34N 55°06' E 014°41'0 0.1
2015-May-15 02:34N 55°06' E 014°41'0 0.0
2015-May-15 01:33N 55°06' E 014°41'0 0.0
2015-May-15 00:34N 55°06' E 014°41'0 0.0
2015-May-14 23:34N 55°06' E 014°41'3 2.8
2015-May-14 22:33N 55°03' E 014°41'6 5.8
2015-May-14 21:34N 54°59' E 014°47'3 2.9
2015-May-14 20:34N 54°56' E 014°50'3 2.8
2015-May-14 19:34N 54°59' E 014°48'8 8.0
2015-May-14 18:33N 55°06' E 014°41'0 0.1
2015-May-14 17:34N 55°06' E 014°41'0 0.0
2015-May-14 16:33N 55°06' E 014°41'0 0.0
2015-May-14 15:33N 55°06' E 014°41'3 2.5
2015-May-14 14:34N 55°03' E 014°41'6 5.8
2015-May-14 13:33N 54°59' E 014°47'3 2.8
2015-May-14 12:34N 54°57' E 014°51'3 3.1
2015-May-14 11:34N 54°60' E 014°47'7 7.2
2015-May-14 10:33N 55°06' E 014°41'0 0.0
2015-May-14 09:33N 55°06' E 014°41'0 0.1
2015-May-14 08:33N 55°06' E 014°41'  

Dump ship's entire track history